Yokohama, Japan
Current Conditions -  °F | °C
As of 9:39 PM on Wednesday 26 Nov 2014 (Local Time) from RJTT Reporting Station
Light Rain Light Rain  
Wind Chill: 41°   Ceiling: 2500
Heat Index: 48°   Visibility: 6mi
Dew Point: 45°   Wind: 22mph
Humidity: 87%   Direction: 340°NNW
Pressure: 29.91"   Gusts: 33mph
Location:  35.47°N, 139.62°E
Report Text: RJTT 261239Z 34019G29KT 9999 -RA FEW010 BKN025 09/07 Q1013 RMK 1CU010 7SC025 A2992
Loading
Personal Weather Stations






























Interactive Weather Map New forecast layout! Learn more

10-Day Weather Forecast

Advertisements
Track Severe Weather on mobile